createdAt,value
2022-08-05T00:00:46.735Z,23.66
2022-08-05T00:03:16.555Z,23.59
2022-08-05T00:06:05.468Z,23.70
2022-08-05T00:08:35.163Z,23.63
2022-08-05T00:11:07.494Z,23.58
2022-08-05T00:13:46.963Z,23.51
2022-08-05T00:16:20.110Z,23.50
2022-08-05T00:19:03.969Z,23.52
2022-08-05T00:21:30.757Z,23.41
2022-08-05T00:24:10.311Z,23.41
2022-08-05T00:26:38.015Z,23.52
2022-08-05T00:29:04.510Z,23.43
2022-08-05T00:31:53.933Z,23.38
2022-08-05T00:34:56.994Z,23.47
2022-08-05T00:37:10.761Z,23.57
2022-08-05T00:39:44.338Z,23.37
2022-08-05T00:42:35.472Z,23.43
2022-08-05T00:45:05.587Z,23.28
2022-08-05T00:47:56.381Z,23.36
2022-08-05T00:50:21.383Z,23.38
2022-08-05T00:52:51.977Z,23.23
2022-08-05T00:55:19.805Z,23.29
2022-08-05T00:57:58.179Z,23.36
2022-08-05T01:00:26.247Z,23.31
2022-08-05T01:02:52.731Z,23.32
2022-08-05T01:05:19.391Z,23.28
2022-08-05T01:08:29.909Z,23.26
2022-08-05T01:10:52.216Z,23.31
2022-08-05T01:13:27.079Z,23.21
2022-08-05T01:15:58.637Z,23.19
2022-08-05T01:18:29.858Z,23.17
2022-08-05T01:21:00.380Z,23.25
2022-08-05T01:23:35.930Z,23.19
2022-08-05T01:26:05.372Z,23.10
2022-08-05T01:28:34.921Z,23.22
2022-08-05T01:31:21.556Z,23.19
2022-08-05T01:34:01.481Z,23.13
2022-08-05T01:36:31.114Z,23.25
2022-08-05T01:39:00.138Z,23.12
2022-08-05T01:41:29.537Z,23.17
2022-08-05T01:43:56.407Z,23.10
2022-08-05T01:46:43.161Z,23.21
2022-08-05T01:49:23.675Z,23.23
2022-08-05T01:51:54.092Z,23.34
2022-08-05T01:54:25.630Z,23.04
2022-08-05T01:58:10.036Z,22.89
2022-08-05T01:59:41.860Z,23.03
2022-08-05T02:02:14.059Z,23.27
2022-08-05T02:04:43.296Z,22.92
2022-08-05T02:07:21.626Z,23.14
2022-08-05T02:09:50.962Z,23.07
2022-08-05T02:12:25.549Z,23.13
2022-08-05T02:15:05.500Z,23.07
2022-08-05T02:18:33.259Z,23.05
2022-08-05T02:20:23.374Z,23.15
2022-08-05T02:22:58.519Z,23.13
2022-08-05T02:25:27.719Z,23.09
2022-08-05T02:28:00.663Z,23.07
2022-08-05T02:30:30.823Z,23.06
2022-08-05T02:32:58.625Z,23.11
2022-08-05T02:35:28.138Z,23.00
2022-08-05T02:38:00.436Z,23.16
2022-08-05T02:40:29.386Z,22.95
2022-08-05T02:42:56.318Z,23.08
2022-08-05T02:45:25.268Z,23.05
2022-08-05T02:48:06.878Z,23.15
2022-08-05T02:50:39.143Z,23.06
2022-08-05T02:53:11.982Z,22.94
2022-08-05T02:55:54.300Z,22.90
2022-08-05T02:58:23.081Z,22.85
2022-08-05T03:00:55.146Z,22.83
2022-08-05T03:03:23.633Z,22.75
2022-08-05T03:06:55.041Z,22.78
2022-08-05T03:08:38.060Z,22.95
2022-08-05T03:11:54.625Z,23.03
2022-08-05T03:14:08.652Z,23.00
2022-08-05T03:16:39.642Z,22.77
2022-08-05T03:19:17.050Z,22.88
2022-08-05T03:21:52.405Z,22.88
2022-08-05T03:24:29.647Z,22.78
2022-08-05T03:26:56.891Z,22.73
2022-08-05T03:29:23.839Z,22.61
2022-08-05T03:31:57.036Z,22.50
2022-08-05T03:34:27.944Z,22.38
2022-08-05T03:36:55.141Z,22.43
2022-08-05T03:39:27.005Z,22.38
2022-08-05T03:41:56.121Z,22.45
2022-08-05T03:44:23.011Z,22.46
2022-08-05T03:46:49.370Z,22.48
2022-08-05T03:49:15.794Z,22.45
2022-08-05T03:52:50.386Z,22.48
2022-08-05T03:54:59.986Z,22.53
2022-08-05T03:57:19.135Z,22.54
2022-08-05T03:59:55.022Z,22.47
2022-08-05T04:02:39.105Z,22.53
2022-08-05T04:05:11.758Z,22.55
2022-08-05T04:07:53.160Z,22.59
2022-08-05T04:10:27.724Z,22.52
2022-08-05T04:12:54.982Z,22.50
2022-08-05T04:15:21.366Z,22.38
2022-08-05T04:17:56.189Z,22.46
2022-08-05T04:20:24.180Z,22.45
2022-08-05T04:22:50.569Z,22.41
2022-08-05T04:25:16.980Z,22.42
2022-08-05T04:27:57.430Z,22.21
2022-08-05T04:30:26.503Z,22.54
2022-08-05T04:32:53.096Z,22.63
2022-08-05T04:35:20.027Z,22.63
2022-08-05T04:38:00.946Z,22.41
2022-08-05T04:40:29.423Z,22.38
2022-08-05T04:42:55.878Z,22.33
2022-08-05T04:45:48.336Z,22.30
2022-08-05T04:48:18.448Z,22.06
2022-08-05T04:51:01.452Z,21.92
2022-08-05T04:53:29.603Z,21.79
2022-08-05T04:56:33.656Z,21.98
2022-08-05T04:58:46.369Z,22.05
2022-08-05T05:01:13.391Z,22.01
2022-08-05T05:03:41.807Z,22.05
2022-08-05T05:06:39.232Z,21.97
2022-08-05T05:08:59.128Z,21.93
2022-08-05T05:11:41.393Z,22.02
2022-08-05T05:14:16.113Z,21.86
2022-08-05T05:16:42.799Z,21.85
2022-08-05T05:19:18.672Z,21.70
2022-08-05T05:21:46.405Z,21.67
2022-08-05T05:24:14.128Z,21.68
2022-08-05T05:26:46.510Z,21.55
2022-08-05T05:29:15.003Z,21.48
2022-08-05T05:31:41.502Z,21.49
2022-08-05T05:34:12.912Z,21.58
2022-08-05T05:36:41.848Z,21.41
2022-08-05T05:39:09.483Z,21.37
2022-08-05T05:41:40.363Z,21.12
2022-08-05T05:44:36.831Z,20.97
2022-08-05T05:46:53.748Z,20.92
2022-08-05T05:49:23.382Z,20.95
2022-08-05T05:51:50.749Z,21.09
2022-08-05T05:54:19.867Z,20.99
2022-08-05T05:56:46.347Z,20.91
2022-08-05T05:59:13.763Z,20.71
2022-08-05T06:01:41.106Z,20.97
2022-08-05T06:04:24.352Z,20.88
2022-08-05T06:06:50.705Z,21.07
2022-08-05T06:09:26.664Z,20.97
2022-08-05T06:12:04.873Z,20.94
2022-08-05T06:14:31.733Z,20.88
2022-08-05T06:16:58.931Z,20.70
2022-08-05T06:19:26.049Z,20.72
2022-08-05T06:22:00.746Z,20.72
2022-08-05T06:24:27.391Z,20.76
2022-08-05T06:26:53.841Z,20.80
2022-08-05T06:29:43.225Z,20.71
2022-08-05T06:32:26.357Z,20.67
2022-08-05T06:34:56.793Z,20.56
2022-08-05T06:37:56.656Z,20.80
2022-08-05T06:40:10.892Z,20.91
2022-08-05T06:42:39.921Z,20.81
2022-08-05T06:45:08.820Z,20.84
2022-08-05T06:48:35.870Z,20.67
2022-08-05T06:50:21.833Z,20.69
2022-08-05T06:53:03.605Z,20.76
2022-08-05T06:55:36.186Z,20.70
2022-08-05T06:58:20.162Z,20.63
2022-08-05T07:00:49.549Z,20.71
2022-08-05T07:03:16.673Z,20.61
2022-08-05T07:05:43.282Z,20.76
2022-08-05T07:08:10.750Z,20.70
2022-08-05T07:10:37.790Z,20.71
2022-08-05T07:13:55.068Z,20.65
2022-08-05T07:17:56.272Z,20.57
2022-08-05T07:19:16.155Z,20.60
2022-08-05T07:22:02.612Z,20.50
2022-08-05T07:24:30.004Z,20.47
2022-08-05T07:26:56.418Z,20.31
2022-08-05T07:30:21.775Z,20.38
2022-08-05T07:32:09.148Z,20.33
2022-08-05T07:34:40.445Z,20.32
2022-08-05T07:37:11.470Z,20.22
2022-08-05T07:40:04.770Z,20.25
2022-08-05T07:42:31.857Z,20.32
2022-08-05T07:45:03.270Z,20.36
2022-08-05T07:47:41.975Z,20.38
2022-08-05T07:50:09.293Z,20.42
2022-08-05T07:52:39.901Z,20.55
2022-08-05T07:55:15.693Z,20.59
2022-08-05T07:58:02.166Z,20.62
2022-08-05T08:00:29.631Z,20.67
2022-08-05T08:03:14.190Z,20.75
2022-08-05T08:05:47.560Z,20.88
2022-08-05T08:08:16.766Z,20.92
2022-08-05T08:10:48.888Z,21.00
2022-08-05T08:13:15.460Z,21.10
2022-08-05T08:16:34.974Z,21.13
2022-08-05T08:18:34.939Z,21.21
2022-08-05T08:21:04.900Z,21.17
2022-08-05T08:24:01.409Z,21.31
2022-08-05T08:26:29.797Z,21.20
2022-08-05T08:29:02.059Z,21.36
2022-08-05T08:31:44.979Z,21.29
2022-08-05T08:34:11.346Z,21.35
2022-08-05T08:36:50.571Z,21.39
2022-08-05T08:39:19.377Z,21.39
2022-08-05T08:41:52.511Z,21.27
2022-08-05T08:45:17.684Z,21.30
2022-08-05T08:47:47.034Z,21.36
2022-08-05T08:50:08.873Z,21.50
2022-08-05T08:52:52.967Z,21.42
2022-08-05T08:56:01.688Z,21.58
2022-08-05T08:58:06.537Z,21.52
2022-08-05T09:00:35.099Z,21.49
2022-08-05T09:03:03.224Z,21.50
2022-08-05T09:05:38.495Z,21.51
2022-08-05T09:08:17.336Z,21.50
2022-08-05T09:10:46.867Z,21.50
2022-08-05T09:13:14.573Z,21.50
2022-08-05T09:15:42.276Z,21.50
2022-08-05T09:18:09.495Z,21.45
2022-08-05T09:20:37.650Z,21.44
2022-08-05T09:23:18.306Z,21.49
2022-08-05T09:26:00.228Z,21.48
2022-08-05T09:28:32.125Z,21.60
2022-08-05T09:31:18.220Z,21.65
2022-08-05T09:33:54.842Z,21.79
2022-08-05T09:36:27.898Z,21.68
2022-08-05T09:39:18.049Z,21.69
2022-08-05T09:42:00.736Z,21.75
2022-08-05T09:44:41.089Z,21.79
2022-08-05T09:47:14.086Z,21.84
2022-08-05T09:50:01.315Z,22.03
2022-08-05T09:52:30.148Z,22.08
2022-08-05T09:55:55.175Z,22.12
2022-08-05T09:57:47.656Z,22.28
2022-08-05T10:00:15.764Z,22.19
2022-08-05T10:02:46.932Z,22.30
2022-08-05T10:05:20.437Z,22.32
2022-08-05T10:08:36.136Z,22.33
2022-08-05T10:10:43.874Z,22.44
2022-08-05T10:13:10.299Z,22.53
2022-08-05T10:15:38.590Z,22.58
2022-08-05T10:18:10.524Z,22.61
2022-08-05T10:20:39.173Z,22.65
2022-08-05T10:23:08.935Z,22.83
2022-08-05T10:26:01.890Z,22.82
2022-08-05T10:28:30.538Z,23.04
2022-08-05T10:32:49.351Z,23.12
2022-08-05T10:36:11.357Z,23.33
2022-08-05T10:41:23.477Z,23.25
2022-08-05T10:43:53.062Z,23.25
2022-08-05T10:46:24.128Z,23.24
2022-08-05T10:48:57.923Z,23.13
2022-08-05T10:51:59.656Z,23.14
2022-08-05T10:54:46.960Z,23.07
2022-08-05T10:57:29.673Z,23.14
2022-08-05T11:00:12.024Z,23.17
2022-08-05T11:03:24.834Z,23.25
2022-08-05T11:06:08.618Z,23.37
2022-08-05T11:09:02.886Z,23.43
2022-08-05T11:11:52.707Z,23.48
2022-08-05T11:18:09.746Z,23.47
2022-08-05T11:20:30.313Z,23.50
2022-08-05T11:23:01.971Z,23.37
2022-08-05T11:26:04.555Z,23.55
2022-08-05T11:28:18.772Z,23.51
2022-08-05T11:31:06.470Z,23.59
2022-08-05T11:33:46.041Z,23.63
2022-08-05T11:36:16.107Z,23.70
2022-08-05T11:39:01.344Z,23.72
2022-08-05T11:41:57.989Z,23.80
2022-08-05T11:44:40.201Z,23.86
2022-08-05T11:47:14.061Z,23.79
2022-08-05T11:49:43.280Z,23.70
2022-08-05T11:52:23.040Z,23.70
2022-08-05T11:54:56.429Z,23.71
2022-08-05T11:57:27.898Z,23.70
2022-08-05T11:59:57.639Z,23.66
2022-08-05T12:02:31.838Z,23.90
2022-08-05T12:05:00.158Z,24.03
2022-08-05T12:08:04.413Z,23.99
2022-08-05T12:10:20.814Z,24.14
2022-08-05T12:12:59.585Z,23.96
2022-08-05T12:15:35.783Z,24.09
2022-08-05T12:18:10.936Z,24.11
2022-08-05T12:20:38.883Z,24.12
2022-08-05T12:23:11.725Z,24.27
2022-08-05T12:25:56.410Z,24.32
2022-08-05T12:28:37.032Z,24.30
2022-08-05T12:31:04.574Z,24.34
2022-08-05T12:33:36.244Z,24.32
2022-08-05T12:36:07.930Z,24.45
2022-08-05T12:38:39.735Z,24.41
2022-08-05T12:41:14.028Z,24.44
2022-08-05T12:43:51.355Z,24.52
2022-08-05T12:46:29.588Z,24.46
2022-08-05T12:49:13.449Z,24.31
2022-08-05T12:52:13.514Z,24.31
2022-08-05T12:54:47.064Z,24.16
2022-08-05T12:57:16.191Z,24.22
2022-08-05T13:00:08.899Z,24.14
2022-08-05T13:02:32.035Z,24.34
2022-08-05T13:04:58.717Z,24.34
2022-08-05T13:07:57.594Z,24.24
2022-08-05T13:10:13.899Z,24.28
2022-08-05T13:12:50.647Z,24.22
2022-08-05T13:15:35.966Z,24.30
2022-08-05T13:18:08.391Z,24.15
2022-08-05T13:20:35.574Z,24.24
2022-08-05T13:23:07.369Z,24.24
2022-08-05T13:25:52.502Z,24.37
2022-08-05T13:28:21.858Z,24.23
2022-08-05T13:30:48.772Z,24.42
2022-08-05T13:34:21.873Z,24.34
2022-08-05T13:36:05.238Z,24.50
2022-08-05T13:38:36.338Z,24.46
2022-08-05T13:41:08.722Z,24.33
2022-08-05T13:43:44.219Z,24.45
2022-08-05T13:46:35.731Z,24.65
2022-08-05T13:49:05.513Z,24.52
2022-08-05T13:51:41.214Z,24.57
2022-08-05T13:54:12.443Z,24.52
2022-08-05T13:56:40.043Z,24.58
2022-08-05T13:59:20.307Z,24.53
2022-08-05T14:01:57.608Z,24.64
2022-08-05T14:04:51.997Z,24.54
2022-08-05T14:07:56.477Z,24.52
2022-08-05T14:10:08.468Z,24.57
2022-08-05T14:12:35.458Z,24.54
2022-08-05T14:15:05.998Z,24.66
2022-08-05T14:17:48.399Z,24.61
2022-08-05T14:20:18.380Z,24.50
2022-08-05T14:22:50.178Z,24.40
2022-08-05T14:25:21.745Z,24.41
2022-08-05T14:27:49.452Z,24.28
2022-08-05T14:30:20.363Z,24.23
2022-08-05T14:32:47.336Z,24.20
2022-08-05T14:35:13.679Z,24.30
2022-08-05T14:37:48.220Z,24.25
2022-08-05T14:40:16.777Z,24.13
2022-08-05T14:42:44.124Z,23.90
2022-08-05T14:45:13.963Z,24.23
2022-08-05T14:48:03.574Z,24.13
2022-08-05T14:50:28.400Z,24.11
2022-08-05T14:52:59.206Z,23.96
2022-08-05T14:55:38.434Z,23.95
2022-08-05T14:58:11.907Z,23.96
2022-08-05T15:00:39.448Z,23.89
2022-08-05T15:03:25.508Z,23.81
2022-08-05T15:06:13.102Z,23.84
2022-08-05T15:09:01.412Z,23.49
2022-08-05T15:11:24.848Z,23.33
2022-08-05T15:14:11.349Z,23.27
2022-08-05T15:16:47.134Z,23.27
2022-08-05T15:19:23.263Z,22.95
2022-08-05T15:21:50.414Z,22.69
2022-08-05T15:24:17.176Z,22.58
2022-08-05T15:26:43.754Z,22.13
2022-08-05T15:29:10.994Z,22.30
2022-08-05T15:31:37.722Z,22.41
2022-08-05T15:34:32.550Z,22.40
2022-08-05T15:36:51.775Z,21.74
2022-08-05T15:40:58.916Z,21.91
2022-08-05T15:42:53.478Z,21.53
2022-08-05T15:47:58.358Z,21.32
2022-08-05T15:50:26.709Z,20.99
2022-08-05T15:53:01.866Z,20.86
2022-08-05T15:56:02.298Z,20.93
2022-08-05T15:58:17.264Z,20.38
2022-08-05T16:00:51.037Z,20.35
2022-08-05T16:03:30.565Z,20.60
2022-08-05T16:05:59.238Z,20.61
2022-08-05T16:08:30.403Z,20.66
2022-08-05T16:10:57.731Z,20.19
2022-08-05T16:13:24.170Z,20.05
2022-08-05T16:16:00.862Z,19.96
2022-08-05T16:18:28.040Z,20.05
2022-08-05T16:20:55.608Z,20.00
2022-08-05T16:23:22.181Z,19.86
2022-08-05T16:25:53.287Z,19.83
2022-08-05T16:28:22.336Z,19.68
2022-08-05T16:30:52.047Z,19.79
2022-08-05T16:33:19.325Z,19.63
2022-08-05T16:35:48.798Z,19.74
2022-08-05T16:38:25.084Z,19.65
2022-08-05T16:41:00.141Z,19.65
2022-08-05T16:43:28.525Z,19.66
2022-08-05T16:46:04.638Z,19.78
2022-08-05T16:48:35.900Z,19.71
2022-08-05T16:51:02.466Z,19.71
2022-08-05T16:54:04.085Z,19.74
2022-08-05T16:56:21.650Z,19.66
2022-08-05T16:58:50.050Z,19.66
2022-08-05T17:01:16.670Z,19.37
2022-08-05T17:03:45.091Z,19.40
2022-08-05T17:06:11.681Z,19.34
2022-08-05T17:08:53.582Z,19.29
2022-08-05T17:11:23.418Z,19.19
2022-08-05T17:13:51.556Z,19.35
2022-08-05T17:16:33.004Z,19.27
2022-08-05T17:19:00.270Z,18.99
2022-08-05T17:21:35.680Z,19.00
2022-08-05T17:24:19.909Z,19.19
2022-08-05T17:26:49.983Z,19.07
2022-08-05T17:29:17.136Z,18.94
2022-08-05T17:31:58.353Z,19.10
2022-08-05T17:34:30.262Z,19.02
2022-08-05T17:36:59.372Z,18.92
2022-08-05T17:39:33.516Z,18.99
2022-08-05T17:42:19.030Z,18.90
2022-08-05T17:44:50.297Z,19.02
2022-08-05T17:47:21.765Z,18.95
2022-08-05T17:49:59.801Z,18.88
2022-08-05T17:52:31.329Z,18.84
2022-08-05T17:54:57.845Z,18.91
2022-08-05T18:00:05.472Z,18.64
2022-08-05T18:02:35.338Z,18.78
2022-08-05T18:05:06.287Z,18.60
2022-08-05T18:07:41.157Z,18.45
2022-08-05T18:10:10.281Z,18.51
2022-08-05T18:12:37.306Z,18.35
2022-08-05T18:15:04.047Z,18.37
2022-08-05T18:18:01.355Z,18.44
2022-08-05T18:20:19.423Z,18.57
2022-08-05T18:22:57.348Z,18.36
2022-08-05T18:25:25.071Z,18.42
2022-08-05T18:27:52.507Z,18.32
2022-08-05T18:30:19.511Z,18.39
2022-08-05T18:32:53.356Z,18.19
2022-08-05T18:35:28.408Z,18.31
2022-08-05T18:38:13.425Z,18.39
2022-08-05T18:41:53.942Z,18.31
2022-08-05T18:43:31.635Z,17.94
2022-08-05T18:46:04.673Z,17.99
2022-08-05T18:48:33.192Z,18.15
2022-08-05T18:52:05.202Z,18.00
2022-08-05T18:54:05.566Z,18.01
2022-08-05T18:56:32.301Z,17.99
2022-08-05T18:59:01.068Z,18.12
2022-08-05T19:01:47.297Z,17.95
2022-08-05T19:04:14.273Z,17.92
2022-08-05T19:06:50.677Z,17.97
2022-08-05T19:09:18.631Z,17.95
2022-08-05T19:11:59.397Z,17.89
2022-08-05T19:14:37.707Z,17.89
2022-08-05T19:17:14.527Z,17.90
2022-08-05T19:19:46.464Z,17.98
2022-08-05T19:22:22.736Z,17.86
2022-08-05T19:24:56.486Z,17.90
2022-08-05T19:27:24.106Z,17.95
2022-08-05T19:29:58.363Z,17.97
2022-08-05T19:32:26.144Z,17.86
2022-08-05T19:34:55.317Z,17.85
2022-08-05T19:37:35.092Z,17.96
2022-08-05T19:40:10.228Z,17.98
2022-08-05T19:42:37.130Z,17.90
2022-08-05T19:45:07.069Z,18.06
2022-08-05T19:47:34.518Z,18.14
2022-08-05T19:50:03.877Z,18.03
2022-08-05T19:52:32.685Z,17.83
2022-08-05T19:55:00.452Z,18.03
2022-08-05T19:57:47.708Z,17.93
2022-08-05T20:00:20.821Z,17.98
2022-08-05T20:02:47.524Z,17.95
2022-08-05T20:05:16.493Z,18.00
2022-08-05T20:07:53.890Z,17.97
2022-08-05T20:10:24.518Z,17.77
2022-08-05T20:12:51.731Z,17.91
2022-08-05T20:15:48.663Z,17.71
2022-08-05T20:18:10.114Z,17.95
2022-08-05T20:20:55.021Z,17.72
2022-08-05T20:23:22.117Z,17.72
2022-08-05T20:25:48.582Z,17.79
2022-08-05T20:28:18.578Z,17.81
2022-08-05T20:30:45.001Z,17.69
2022-08-05T20:33:11.553Z,17.51
2022-08-05T20:35:45.254Z,17.71
2022-08-05T20:38:20.181Z,17.70
2022-08-05T20:40:50.498Z,17.73
2022-08-05T20:43:17.296Z,17.55
2022-08-05T20:46:00.280Z,17.64
2022-08-05T20:48:26.946Z,17.63
2022-08-05T20:50:53.430Z,17.48
2022-08-05T20:53:36.783Z,17.63
2022-08-05T20:56:08.783Z,17.42
2022-08-05T20:58:35.703Z,17.66
2022-08-05T21:01:03.519Z,17.48
2022-08-05T21:03:34.194Z,17.28
2022-08-05T21:06:01.649Z,17.37
2022-08-05T21:08:41.315Z,17.38
2022-08-05T21:11:11.644Z,17.48
2022-08-05T21:13:47.501Z,17.52
2022-08-05T21:16:22.502Z,17.31
2022-08-05T21:18:55.651Z,17.52
2022-08-05T21:21:26.909Z,17.47
2022-08-05T21:24:13.008Z,17.39
2022-08-05T21:26:39.783Z,17.29
2022-08-05T21:29:10.157Z,17.25
2022-08-05T21:31:41.616Z,17.07
2022-08-05T21:34:08.422Z,17.27
2022-08-05T21:36:37.091Z,17.05
2022-08-05T21:39:03.735Z,17.11
2022-08-05T21:41:34.080Z,17.05
2022-08-05T21:44:04.227Z,17.02
2022-08-05T21:46:34.225Z,17.14
2022-08-05T21:49:01.633Z,17.07
2022-08-05T21:52:16.638Z,17.17
2022-08-05T21:54:14.530Z,16.81
2022-08-05T21:56:44.643Z,17.05
2022-08-05T21:59:24.307Z,17.12
2022-08-05T22:01:54.323Z,16.98
2022-08-05T22:04:21.191Z,16.89
2022-08-05T22:06:52.038Z,17.00
2022-08-05T22:09:21.152Z,16.81
2022-08-05T22:11:48.278Z,16.65
2022-08-05T22:14:35.436Z,16.56
2022-08-05T22:17:03.428Z,16.58
2022-08-05T22:20:01.317Z,16.49
2022-08-05T22:22:27.226Z,16.66
2022-08-05T22:25:21.678Z,16.61
2022-08-05T22:28:09.953Z,16.57
2022-08-05T22:30:55.315Z,16.51
2022-08-05T22:33:55.499Z,16.46
2022-08-05T22:36:08.692Z,16.50
2022-08-05T22:38:36.543Z,16.53
2022-08-05T22:41:09.841Z,16.28
2022-08-05T22:43:38.166Z,16.45
2022-08-05T22:46:13.119Z,16.42
2022-08-05T22:48:40.420Z,16.55
2022-08-05T22:51:07.566Z,16.16
2022-08-05T22:53:35.778Z,16.16
2022-08-05T22:56:02.567Z,16.22
2022-08-05T22:58:28.931Z,16.21
2022-08-05T23:00:57.054Z,16.14
2022-08-05T23:03:57.940Z,16.09
2022-08-05T23:06:10.148Z,16.09
2022-08-05T23:08:36.614Z,15.86
2022-08-05T23:11:02.989Z,16.00
2022-08-05T23:13:29.440Z,16.07
2022-08-05T23:15:56.134Z,15.94
2022-08-05T23:18:22.894Z,16.00
2022-08-05T23:20:49.438Z,16.02
2022-08-05T23:23:15.826Z,15.75
2022-08-05T23:25:51.588Z,15.77
2022-08-05T23:28:20.979Z,15.71
2022-08-05T23:30:53.959Z,15.59
2022-08-05T23:33:22.215Z,15.63
2022-08-05T23:35:52.554Z,15.73
2022-08-05T23:38:22.791Z,15.75
2022-08-05T23:40:50.613Z,15.48
2022-08-05T23:43:24.811Z,15.60
2022-08-05T23:46:03.769Z,15.65
2022-08-05T23:48:30.118Z,15.79
2022-08-05T23:50:56.500Z,15.71
2022-08-05T23:53:28.331Z,15.67
2022-08-05T23:56:11.539Z,15.44
2022-08-05T23:58:38.342Z,15.42
